createdAt,value
2023-01-10T00:00:48.631Z,4.70
2023-01-10T00:03:15.227Z,3.47
2023-01-10T00:05:41.894Z,4.35
2023-01-10T00:08:09.328Z,3.72
2023-01-10T00:10:36.664Z,4.55
2023-01-10T00:13:21.542Z,4.38
2023-01-10T00:15:48.582Z,4.75
2023-01-10T00:18:15.336Z,4.40
2023-01-10T00:20:42.015Z,3.88
2023-01-10T00:23:08.567Z,4.40
2023-01-10T00:25:36.271Z,3.58
2023-01-10T00:28:10.885Z,4.90
2023-01-10T00:30:39.748Z,4.10
2023-01-10T00:33:07.737Z,3.67
2023-01-10T00:35:35.128Z,4.13
2023-01-10T00:38:05.724Z,4.53
2023-01-10T00:40:33.611Z,3.42
2023-01-10T00:43:19.517Z,4.13
2023-01-10T00:45:47.014Z,5.10
2023-01-10T00:48:17.292Z,3.85
2023-01-10T00:50:44.136Z,4.13
2023-01-10T00:53:10.750Z,4.40
2023-01-10T00:55:37.295Z,4.47
2023-01-10T00:58:04.440Z,4.80
2023-01-10T01:00:31.075Z,3.78
2023-01-10T01:02:57.948Z,4.15
2023-01-10T01:05:24.530Z,4.88
2023-01-10T01:07:52.332Z,3.67
2023-01-10T01:10:28.109Z,3.50
2023-01-10T01:13:10.904Z,3.35
2023-01-10T01:15:37.756Z,4.30
2023-01-10T01:18:04.649Z,4.38
2023-01-10T01:20:31.423Z,4.07
2023-01-10T01:22:57.994Z,4.85
2023-01-10T01:25:24.902Z,3.55
2023-01-10T01:27:51.606Z,3.65
2023-01-10T01:30:18.208Z,4.03
2023-01-10T01:32:44.869Z,4.43
2023-01-10T01:35:14.710Z,3.78
2023-01-10T01:37:42.244Z,4.00
2023-01-10T01:40:15.269Z,4.50
2023-01-10T01:42:43.175Z,3.85
2023-01-10T01:45:09.662Z,3.75
2023-01-10T01:47:41.218Z,3.67
2023-01-10T01:50:19.424Z,4.22
2023-01-10T01:52:48.997Z,3.70
2023-01-10T01:55:15.739Z,3.60
2023-01-10T01:57:42.798Z,3.67
2023-01-10T02:00:10.681Z,3.97
2023-01-10T02:03:01.250Z,3.17
2023-01-10T02:05:28.777Z,3.08
2023-01-10T02:07:59.909Z,3.45
2023-01-10T02:10:29.411Z,3.50
2023-01-10T02:13:01.539Z,3.47
2023-01-10T02:15:29.199Z,3.47
2023-01-10T02:17:58.243Z,3.63
2023-01-10T02:20:26.706Z,3.58
2023-01-10T02:23:17.268Z,3.17
2023-01-10T02:26:16.257Z,4.13
2023-01-10T02:28:54.113Z,3.00
2023-01-10T02:31:51.809Z,3.58
2023-01-10T02:34:34.967Z,3.80
2023-01-10T02:37:19.363Z,3.67
2023-01-10T02:40:07.958Z,3.67
2023-01-10T02:43:04.299Z,3.25
2023-01-10T02:45:39.980Z,3.70
2023-01-10T02:48:06.899Z,2.90
2023-01-10T02:50:36.156Z,4.03
2023-01-10T02:53:25.777Z,3.20
2023-01-10T02:56:14.272Z,3.53
2023-01-10T02:59:02.407Z,4.00
2023-01-10T03:01:57.876Z,3.03
2023-01-10T03:04:39.800Z,3.00
2023-01-10T03:07:15.274Z,3.53
2023-01-10T03:10:13.748Z,3.15
2023-01-10T03:12:51.610Z,3.13
2023-01-10T03:15:20.977Z,3.55
2023-01-10T03:17:51.919Z,3.03
2023-01-10T03:20:21.143Z,3.38
2023-01-10T03:22:48.471Z,3.53
2023-01-10T03:25:18.344Z,3.38
2023-01-10T03:27:52.680Z,3.50
2023-01-10T03:30:37.674Z,3.13
2023-01-10T03:33:05.356Z,3.10
2023-01-10T03:35:44.856Z,3.03
2023-01-10T03:38:47.801Z,3.78
2023-01-10T03:41:40.879Z,3.38
2023-01-10T03:44:41.131Z,3.90
2023-01-10T03:47:13.430Z,4.00
2023-01-10T03:49:42.425Z,4.53
2023-01-10T03:52:14.095Z,3.75
2023-01-10T03:54:43.035Z,3.95
2023-01-10T03:57:16.380Z,3.90
2023-01-10T03:59:43.407Z,3.95
2023-01-10T04:02:10.026Z,4.55
2023-01-10T04:04:36.576Z,4.90
2023-01-10T04:07:03.167Z,4.30
2023-01-10T04:09:29.724Z,4.95
2023-01-10T04:11:56.487Z,4.03
2023-01-10T04:14:23.069Z,4.93
2023-01-10T04:16:49.694Z,4.53
2023-01-10T04:19:16.272Z,4.63
2023-01-10T04:21:42.836Z,4.93
2023-01-10T04:24:09.606Z,4.72
2023-01-10T04:26:36.217Z,4.18
2023-01-10T04:29:02.985Z,4.68
2023-01-10T04:31:29.663Z,4.20
2023-01-10T04:33:56.295Z,3.80
2023-01-10T04:36:22.833Z,5.18
2023-01-10T04:38:49.378Z,4.40
2023-01-10T04:41:16.036Z,4.10
2023-01-10T04:43:42.728Z,4.00
2023-01-10T04:46:09.457Z,4.45
2023-01-10T04:48:37.408Z,4.00
2023-01-10T04:51:04.302Z,4.65
2023-01-10T04:53:30.955Z,4.50
2023-01-10T04:56:06.352Z,4.30
2023-01-10T04:58:38.086Z,4.50
2023-01-10T05:01:12.818Z,4.90
2023-01-10T05:03:40.042Z,4.53
2023-01-10T05:06:07.465Z,4.35
2023-01-10T05:08:34.448Z,3.95
2023-01-10T05:11:01.101Z,4.13
2023-01-10T05:13:28.130Z,4.15
2023-01-10T05:15:58.495Z,3.88
2023-01-10T05:18:26.300Z,4.63
2023-01-10T05:20:53.083Z,4.53
2023-01-10T05:23:19.655Z,3.78
2023-01-10T05:25:46.258Z,3.67
2023-01-10T05:28:12.827Z,4.22
2023-01-10T05:30:39.410Z,4.28
2023-01-10T05:33:06.053Z,4.38
2023-01-10T05:35:32.818Z,4.72
2023-01-10T05:37:59.385Z,3.97
2023-01-10T05:40:25.943Z,4.22
2023-01-10T05:42:52.476Z,3.95
2023-01-10T05:45:19.339Z,4.20
2023-01-10T05:47:45.913Z,4.75
2023-01-10T05:50:12.645Z,5.20
2023-01-10T05:52:39.233Z,3.90
2023-01-10T05:55:06.209Z,3.85
2023-01-10T05:57:32.808Z,4.00
2023-01-10T05:59:59.454Z,5.47
2023-01-10T06:02:26.720Z,4.03
2023-01-10T06:04:55.601Z,3.78
2023-01-10T06:07:23.031Z,4.55
2023-01-10T06:09:51.415Z,4.07
2023-01-10T06:12:21.159Z,4.13
2023-01-10T06:14:47.706Z,4.78
2023-01-10T06:17:14.280Z,3.63
2023-01-10T06:19:40.960Z,3.47
2023-01-10T06:22:07.589Z,4.10
2023-01-10T06:24:34.124Z,4.57
2023-01-10T06:27:00.840Z,4.68
2023-01-10T06:29:27.401Z,3.92
2023-01-10T06:31:53.991Z,4.00
2023-01-10T06:34:20.616Z,3.92
2023-01-10T06:36:47.167Z,4.15
2023-01-10T06:39:13.758Z,4.45
2023-01-10T06:41:40.382Z,4.35
2023-01-10T06:44:06.936Z,4.25
2023-01-10T06:46:33.533Z,5.28
2023-01-10T06:49:00.195Z,4.72
2023-01-10T06:51:27.027Z,4.80
2023-01-10T06:53:53.671Z,5.38
2023-01-10T06:56:20.324Z,4.57
2023-01-10T06:58:49.724Z,4.15
2023-01-10T07:01:19.173Z,4.35
2023-01-10T07:03:45.934Z,3.63
2023-01-10T07:06:13.027Z,3.75
2023-01-10T07:08:45.674Z,3.92
2023-01-10T07:11:14.729Z,4.68
2023-01-10T07:13:41.850Z,4.57
2023-01-10T07:16:11.217Z,3.90
2023-01-10T07:18:40.210Z,4.88
2023-01-10T07:21:07.636Z,4.43
2023-01-10T07:23:34.558Z,3.83
2023-01-10T07:26:05.971Z,4.93
2023-01-10T07:28:34.617Z,4.28
2023-01-10T07:31:02.563Z,4.40
2023-01-10T07:33:29.798Z,4.03
2023-01-10T07:35:56.397Z,4.38
2023-01-10T07:38:23.132Z,4.03
2023-01-10T07:40:49.818Z,4.10
2023-01-10T07:43:16.645Z,5.05
2023-01-10T07:45:43.312Z,4.60
2023-01-10T07:48:10.132Z,4.05
2023-01-10T07:50:36.989Z,4.22
2023-01-10T07:53:05.817Z,4.68
2023-01-10T07:55:34.702Z,4.07
2023-01-10T07:58:01.402Z,4.55
2023-01-10T08:00:28.380Z,5.13
2023-01-10T08:02:56.134Z,4.53
2023-01-10T08:05:23.984Z,4.80
2023-01-10T08:07:50.767Z,4.40
2023-01-10T08:10:17.659Z,5.53
2023-01-10T08:12:44.321Z,4.80
2023-01-10T08:15:11.124Z,4.90
2023-01-10T08:17:37.783Z,5.55
2023-01-10T08:20:06.132Z,5.00
2023-01-10T08:22:32.723Z,4.43
2023-01-10T08:24:59.360Z,4.30
2023-01-10T08:27:25.945Z,4.38
2023-01-10T08:29:52.668Z,5.20
2023-01-10T08:32:19.331Z,4.95
2023-01-10T08:34:45.937Z,4.93
2023-01-10T08:37:14.093Z,5.10
2023-01-10T08:39:41.182Z,4.85
2023-01-10T08:42:07.855Z,4.93
2023-01-10T08:44:35.020Z,5.30
2023-01-10T08:47:01.740Z,4.75
2023-01-10T08:49:28.302Z,4.88
2023-01-10T08:51:54.979Z,4.22
2023-01-10T08:54:21.737Z,5.68
2023-01-10T08:56:48.311Z,4.90
2023-01-10T08:59:15.967Z,4.10
2023-01-10T09:01:42.595Z,4.70
2023-01-10T09:04:09.207Z,4.68
2023-01-10T09:06:36.422Z,4.43
2023-01-10T09:09:03.302Z,4.32
2023-01-10T09:11:29.884Z,4.57
2023-01-10T09:13:56.599Z,5.10
2023-01-10T09:16:23.900Z,4.15
2023-01-10T09:18:50.518Z,4.63
2023-01-10T09:21:17.139Z,4.63
2023-01-10T09:23:44.392Z,4.18
2023-01-10T09:26:11.070Z,3.95
2023-01-10T09:28:37.794Z,4.70
2023-01-10T09:31:05.231Z,4.93
2023-01-10T09:33:45.279Z,3.75
2023-01-10T09:36:15.521Z,4.00
2023-01-10T09:38:42.405Z,4.50
2023-01-10T09:41:24.197Z,4.30
2023-01-10T09:44:18.748Z,4.18
2023-01-10T09:47:00.804Z,3.67
2023-01-10T09:50:30.304Z,4.18
2023-01-10T09:53:04.235Z,4.70
2023-01-10T09:55:33.916Z,3.95
2023-01-10T09:58:05.389Z,4.35
2023-01-10T10:00:42.614Z,4.15
2023-01-10T10:03:24.653Z,4.28
2023-01-10T10:05:55.955Z,4.00
2023-01-10T10:08:25.175Z,3.67
2023-01-10T10:10:55.988Z,4.75
2023-01-10T10:13:47.713Z,4.20
2023-01-10T10:16:32.913Z,4.78
2023-01-10T10:19:17.835Z,4.30
2023-01-10T10:21:55.814Z,3.85
2023-01-10T10:24:28.157Z,4.78
2023-01-10T10:27:27.524Z,4.07
2023-01-10T10:30:17.289Z,4.93
2023-01-10T10:32:46.925Z,4.47
2023-01-10T10:35:35.215Z,4.35
2023-01-10T10:38:17.029Z,4.82
2023-01-10T10:40:46.850Z,4.65
2023-01-10T10:43:21.688Z,4.57
2023-01-10T10:45:54.381Z,4.30
2023-01-10T10:48:25.938Z,4.45
2023-01-10T10:51:08.760Z,4.53
2023-01-10T10:53:36.300Z,4.60
2023-01-10T10:56:05.945Z,4.70
2023-01-10T10:58:33.324Z,5.03
2023-01-10T11:01:01.062Z,4.97
2023-01-10T11:03:48.436Z,4.38
2023-01-10T11:06:17.352Z,5.22
2023-01-10T11:08:47.064Z,4.45
2023-01-10T11:11:31.629Z,3.95
2023-01-10T11:14:00.565Z,4.07
2023-01-10T11:16:31.492Z,4.55
2023-01-10T11:19:18.389Z,4.68
2023-01-10T11:21:59.091Z,4.63
2023-01-10T11:24:35.644Z,4.38
2023-01-10T11:27:13.477Z,4.72
2023-01-10T11:29:46.282Z,4.25
2023-01-10T11:32:17.199Z,3.55
2023-01-10T11:34:55.237Z,4.80
2023-01-10T11:37:29.002Z,4.32
2023-01-10T11:40:17.432Z,4.78
2023-01-10T11:42:44.482Z,4.60
2023-01-10T11:45:20.388Z,4.15
2023-01-10T11:47:51.683Z,5.07
2023-01-10T11:50:28.510Z,4.47
2023-01-10T11:52:56.579Z,4.40
2023-01-10T11:55:27.467Z,5.50
2023-01-10T11:58:05.847Z,4.85
2023-01-10T12:00:38.061Z,4.22
2023-01-10T12:03:20.404Z,4.60
2023-01-10T12:06:00.505Z,5.32
2023-01-10T12:08:36.089Z,4.35
2023-01-10T12:11:17.678Z,4.82
2023-01-10T12:13:50.505Z,6.18
2023-01-10T12:16:22.546Z,4.78
2023-01-10T12:18:51.829Z,4.13
2023-01-10T12:21:42.889Z,4.15
2023-01-10T12:24:22.459Z,3.97
2023-01-10T12:26:51.086Z,4.28
2023-01-10T12:29:42.615Z,5.40
2023-01-10T12:32:23.377Z,4.13
2023-01-10T12:35:03.378Z,4.50
2023-01-10T12:37:35.703Z,4.45
2023-01-10T12:40:11.194Z,4.05
2023-01-10T12:43:31.931Z,3.95
2023-01-10T12:46:21.109Z,3.78
2023-01-10T12:49:01.622Z,3.70
2023-01-10T12:51:29.862Z,4.40
2023-01-10T12:54:04.769Z,4.50
2023-01-10T12:56:32.805Z,4.13
2023-01-10T12:59:08.027Z,3.45
2023-01-10T13:01:40.748Z,4.15
2023-01-10T13:04:12.673Z,4.38
2023-01-10T13:06:42.782Z,4.63
2023-01-10T13:09:17.328Z,4.63
2023-01-10T13:11:53.029Z,5.72
2023-01-10T13:14:27.570Z,4.03
2023-01-10T13:17:21.870Z,3.83
2023-01-10T13:20:17.561Z,4.32
2023-01-10T13:22:51.480Z,4.07
2023-01-10T13:25:26.527Z,4.20
2023-01-10T13:27:59.532Z,4.15
2023-01-10T13:30:33.958Z,4.00
2023-01-10T13:33:26.205Z,3.33
2023-01-10T13:35:56.845Z,4.20
2023-01-10T13:38:30.803Z,3.25
2023-01-10T13:41:29.740Z,4.00
2023-01-10T13:44:13.850Z,3.95
2023-01-10T13:46:45.227Z,3.70
2023-01-10T13:49:11.728Z,3.83
2023-01-10T13:51:59.212Z,3.28
2023-01-10T13:54:27.713Z,3.90
2023-01-10T13:56:54.249Z,3.90
2023-01-10T13:59:42.293Z,3.78
2023-01-10T14:02:29.020Z,3.40
2023-01-10T14:05:17.715Z,3.45
2023-01-10T14:07:49.956Z,4.20
2023-01-10T14:10:39.746Z,3.88
2023-01-10T14:13:16.225Z,3.47
2023-01-10T14:15:46.091Z,4.07
2023-01-10T14:18:45.813Z,3.75
2023-01-10T14:21:24.397Z,4.65
2023-01-10T14:23:54.009Z,4.00
2023-01-10T14:26:39.058Z,4.03
2023-01-10T14:29:15.928Z,3.55
2023-01-10T14:31:47.950Z,4.95
2023-01-10T14:37:06.161Z,3.60
2023-01-10T14:39:33.568Z,4.10
2023-01-10T14:42:07.212Z,3.88
2023-01-10T14:44:59.302Z,3.90
2023-01-10T14:47:30.590Z,3.75
2023-01-10T14:50:06.853Z,3.70
2023-01-10T14:52:34.129Z,3.63
2023-01-10T14:55:04.088Z,3.80
2023-01-10T14:57:31.147Z,3.53
2023-01-10T15:00:17.648Z,4.05
2023-01-10T15:02:49.049Z,3.70
2023-01-10T15:05:23.857Z,3.13
2023-01-10T15:07:50.604Z,3.55
2023-01-10T15:10:23.875Z,3.45
2023-01-10T15:12:56.231Z,3.92
2023-01-10T15:15:29.997Z,3.83
2023-01-10T15:17:58.168Z,3.75
2023-01-10T15:20:25.152Z,3.25
2023-01-10T15:23:01.028Z,4.35
2023-01-10T15:25:31.959Z,4.10
2023-01-10T15:27:59.986Z,3.60
2023-01-10T15:30:35.128Z,3.00
2023-01-10T15:33:05.110Z,3.85
2023-01-10T15:35:36.536Z,3.38
2023-01-10T15:38:16.790Z,4.07
2023-01-10T15:40:44.394Z,3.70
2023-01-10T15:43:30.036Z,4.13
2023-01-10T15:45:58.615Z,3.35
2023-01-10T15:48:56.032Z,3.60
2023-01-10T15:51:34.466Z,16.10
2023-01-10T15:54:25.603Z,4.97
2023-01-10T15:56:56.449Z,4.40
2023-01-10T15:59:40.056Z,5.20
2023-01-10T16:02:13.569Z,4.22
2023-01-10T16:04:40.827Z,5.25
2023-01-10T16:07:23.003Z,3.58
2023-01-10T16:12:51.781Z,3.22
2023-01-10T16:15:22.486Z,4.68
2023-01-10T16:17:50.105Z,4.70
2023-01-10T16:20:25.584Z,12.88
2023-01-10T16:22:53.025Z,4.90
2023-01-10T16:25:25.119Z,4.25
2023-01-10T16:27:51.881Z,3.45
2023-01-10T16:30:24.311Z,3.55
2023-01-10T16:32:51.650Z,4.28
2023-01-10T16:35:19.638Z,5.68
2023-01-10T16:37:49.479Z,5.43
2023-01-10T16:40:23.813Z,3.30
2023-01-10T16:43:08.655Z,3.20
2023-01-10T16:45:35.448Z,5.75
2023-01-10T16:48:02.310Z,4.00
2023-01-10T16:50:29.103Z,4.55
2023-01-10T16:52:56.033Z,3.65
2023-01-10T16:55:29.705Z,7.10
2023-01-10T16:57:56.515Z,9.23
2023-01-10T17:00:23.240Z,4.20
2023-01-10T17:02:49.997Z,4.82
2023-01-10T17:05:16.868Z,5.95
2023-01-10T17:07:43.508Z,3.80
2023-01-10T17:10:10.580Z,3.45
2023-01-10T17:12:38.532Z,5.68
2023-01-10T17:15:08.328Z,7.80
2023-01-10T17:17:35.180Z,3.63
2023-01-10T17:20:01.930Z,4.28
2023-01-10T17:22:28.703Z,4.18
2023-01-10T17:24:55.370Z,4.35
2023-01-10T17:27:22.036Z,4.05
2023-01-10T17:29:48.616Z,6.55
2023-01-10T17:32:15.249Z,3.67
2023-01-10T17:34:41.809Z,4.03
2023-01-10T17:37:08.467Z,3.28
2023-01-10T17:39:37.759Z,3.60
2023-01-10T17:42:06.163Z,3.25
2023-01-10T17:44:32.827Z,3.30
2023-01-10T17:46:59.392Z,3.22
2023-01-10T17:49:26.054Z,3.35
2023-01-10T17:51:53.770Z,4.20
2023-01-10T17:54:21.252Z,3.53
2023-01-10T17:56:48.137Z,3.53
2023-01-10T17:59:14.801Z,3.40
2023-01-10T18:01:42.309Z,3.85
2023-01-10T18:04:09.124Z,3.55
2023-01-10T18:06:35.718Z,4.00
2023-01-10T18:09:02.350Z,3.92
2023-01-10T18:11:30.829Z,3.17
2023-01-10T18:13:57.711Z,6.50
2023-01-10T18:16:27.107Z,4.68
2023-01-10T18:18:53.902Z,3.58
2023-01-10T18:21:20.554Z,3.22
2023-01-10T18:23:47.697Z,4.25
2023-01-10T18:26:14.684Z,6.10
2023-01-10T18:28:44.082Z,3.17
2023-01-10T18:31:19.896Z,3.28
2023-01-10T18:33:47.976Z,2.35
2023-01-10T18:36:17.911Z,2.60
2023-01-10T18:38:46.031Z,2.25
2023-01-10T18:41:13.182Z,1.75
2023-01-10T18:43:40.074Z,2.05
2023-01-10T18:46:10.657Z,1.88
2023-01-10T18:48:37.416Z,1.85
2023-01-10T18:51:05.286Z,1.65
2023-01-10T18:53:32.959Z,1.75
2023-01-10T18:56:01.442Z,2.25
2023-01-10T18:58:33.256Z,1.50
2023-01-10T19:01:10.082Z,1.90
2023-01-10T19:03:36.887Z,1.63
2023-01-10T19:06:05.497Z,1.55
2023-01-10T19:08:32.308Z,1.98
2023-01-10T19:11:15.827Z,1.30
2023-01-10T19:13:44.471Z,1.67
2023-01-10T19:16:14.223Z,2.13
2023-01-10T19:18:41.738Z,1.77
2023-01-10T19:21:14.874Z,1.38
2023-01-10T19:23:46.784Z,1.83
2023-01-10T19:26:14.284Z,1.80
2023-01-10T19:28:42.779Z,1.42
2023-01-10T19:31:13.841Z,1.45
2023-01-10T19:33:41.745Z,1.60
2023-01-10T19:36:08.667Z,2.78
2023-01-10T19:38:35.544Z,1.30
2023-01-10T19:41:02.424Z,1.55
2023-01-10T19:43:29.625Z,1.48
2023-01-10T19:45:56.297Z,1.73
2023-01-10T19:48:23.725Z,1.23
2023-01-10T19:50:50.471Z,1.30
2023-01-10T19:53:17.411Z,1.08
2023-01-10T19:55:44.013Z,1.23
2023-01-10T19:58:10.688Z,1.08
2023-01-10T20:00:37.308Z,0.90
2023-01-10T20:03:05.275Z,1.15
2023-01-10T20:05:34.709Z,1.40
2023-01-10T20:08:02.170Z,1.40
2023-01-10T20:10:28.870Z,1.50
2023-01-10T20:12:55.425Z,1.70
2023-01-10T20:15:22.097Z,1.15
2023-01-10T20:17:48.646Z,1.00
2023-01-10T20:20:16.736Z,1.50
2023-01-10T20:22:43.390Z,1.10
2023-01-10T20:25:10.190Z,1.20
2023-01-10T20:27:36.812Z,1.13
2023-01-10T20:30:04.556Z,1.15
2023-01-10T20:32:31.220Z,1.17
2023-01-10T20:34:57.787Z,1.00
2023-01-10T20:37:25.088Z,0.80
2023-01-10T20:39:51.765Z,1.10
2023-01-10T20:42:18.328Z,1.10
2023-01-10T20:44:44.894Z,1.10
2023-01-10T20:47:11.481Z,1.15
2023-01-10T20:49:38.045Z,1.33
2023-01-10T20:52:04.755Z,1.13
2023-01-10T20:54:31.334Z,1.40
2023-01-10T20:56:57.947Z,1.13
2023-01-10T20:59:26.244Z,1.48
2023-01-10T21:01:53.014Z,1.25
2023-01-10T21:04:19.877Z,1.40
2023-01-10T21:06:46.536Z,1.52
2023-01-10T21:09:16.529Z,1.45
2023-01-10T21:11:58.007Z,1.92
2023-01-10T21:14:28.496Z,2.25
2023-01-10T21:16:55.459Z,1.90
2023-01-10T21:19:22.047Z,1.42
2023-01-10T21:21:48.656Z,1.40
2023-01-10T21:24:15.936Z,2.15
2023-01-10T21:26:42.540Z,1.67
2023-01-10T21:29:09.800Z,1.80
2023-01-10T21:31:37.194Z,2.25
2023-01-10T21:34:03.790Z,1.90
2023-01-10T21:36:30.390Z,1.92
2023-01-10T21:38:56.925Z,2.80
2023-01-10T21:41:42.254Z,2.17
2023-01-10T21:44:08.949Z,2.10
2023-01-10T21:46:36.224Z,2.00
2023-01-10T21:49:04.290Z,1.88
2023-01-10T21:51:30.853Z,2.17
2023-01-10T21:53:57.816Z,2.10
2023-01-10T21:56:24.680Z,1.75
2023-01-10T21:58:52.320Z,2.63
2023-01-10T22:01:19.049Z,2.00
2023-01-10T22:03:46.226Z,2.20
2023-01-10T22:06:13.229Z,2.22
2023-01-10T22:08:39.932Z,2.08
2023-01-10T22:11:07.203Z,2.00
2023-01-10T22:13:34.216Z,2.28
2023-01-10T22:16:01.641Z,2.13
2023-01-10T22:18:29.897Z,2.30
2023-01-10T22:20:57.627Z,2.15
2023-01-10T22:23:24.712Z,2.17
2023-01-10T22:26:03.560Z,2.20
2023-01-10T22:28:30.654Z,1.90
2023-01-10T22:30:57.709Z,2.05
2023-01-10T22:33:29.028Z,2.55
2023-01-10T22:35:55.784Z,1.98
2023-01-10T22:38:22.368Z,1.80
2023-01-10T22:40:49.058Z,2.00
2023-01-10T22:43:15.731Z,1.90
2023-01-10T22:45:43.131Z,2.38
2023-01-10T22:48:10.538Z,2.20
2023-01-10T22:50:37.138Z,2.25
2023-01-10T22:53:04.253Z,2.55
2023-01-10T22:55:30.949Z,2.75
2023-01-10T22:57:57.580Z,2.55
2023-01-10T23:00:24.147Z,2.15
2023-01-10T23:02:50.771Z,2.70
2023-01-10T23:05:17.349Z,2.67
2023-01-10T23:07:43.925Z,2.78
2023-01-10T23:10:28.516Z,2.50
2023-01-10T23:12:56.042Z,3.00
2023-01-10T23:15:22.673Z,2.47
2023-01-10T23:17:49.381Z,2.15
2023-01-10T23:20:17.461Z,2.60
2023-01-10T23:22:44.090Z,2.53
2023-01-10T23:25:10.647Z,2.70
2023-01-10T23:27:38.508Z,2.72
2023-01-10T23:30:10.345Z,2.30
2023-01-10T23:32:36.933Z,2.40
2023-01-10T23:35:04.188Z,2.17
2023-01-10T23:37:30.740Z,2.58
2023-01-10T23:39:57.395Z,2.40
2023-01-10T23:42:23.904Z,2.13
2023-01-10T23:44:50.414Z,2.03
2023-01-10T23:47:17.087Z,2.10
2023-01-10T23:49:43.647Z,1.70
2023-01-10T23:52:10.182Z,2.00
2023-01-10T23:54:36.698Z,1.48
2023-01-10T23:57:03.223Z,1.70
2023-01-10T23:59:29.812Z,1.77
